NCAR-RAP Real-Time Weather Data

Output produced by METARs form (23 June 2018  15:26 UTC)
found at http://weather.rap.ucar.edu/surface/
 
RJNK 231500Z 33002KT 9999 -RA FEW100 SCT120 BKN150 20/14 Q1004
RJNK 231400Z 20002KT 9999 FEW100 SCT120 OVC150 19/14 Q1004
RJNK 231300Z 17006KT 9999 FEW100 SCT120 OVC150 20/16 Q1004
RJNK 231200Z 16005KT 9999 -RA FEW100 BKN120 OVC150 21/16 Q1004
RJNK 231100Z 21005KT 9999 -RA FEW100 BKN120 OVC150 21/12 Q1004
RJNK 231000Z 27007KT 9999 FEW100 BKN120 BKN150 22/12 Q1004
RJNK 230900Z VRB02KT 9999 FEW100 BKN120 BKN150 23/13 Q1003
RJNK 230800Z 16003KT 9999 FEW100 BKN120 BKN150 23/12 Q1003
RJNK 230700Z 14007KT 9999 -RA FEW050 BKN120 BKN150 23/13 Q1002
RJNK 230600Z 22006KT 9999 -RA FEW100 BKN120 OVC150 24/12 Q1003
RJNK 230500Z 27005KT 9999 FEW100 SCT120 BKN150 24/12 Q1003
RJNK 230400Z 27007KT 9999 BKN150 BKN180 24/13 Q1003
RJNK 230300Z 02003KT 310V060 9999 FEW050 BKN150 BKN180 27/11 Q1002
RJNK 230200Z 02007KT 360V060 9999 FEW100 BKN150 BKN180 25/12 Q1003
RJNK 230100Z 06004KT 010V090 9999 SCT150 BKN180 BKN230 25/10 Q1004
RJNK 230000Z VRB01KT 9999 SCT150 BKN180 BKN230 22/10 Q1005
RJNK 222300Z VRB02KT 9999 SCT150 BKN180 BKN230 20/10 Q1006
RJNK 222200Z 17003KT 9999 FEW150 BKN180 BKN230 19/09 Q1006
RJNK 222100Z 12003KT 9999 FEW150 BKN180 BKN230 19/07 Q1006
RJNK 222000Z VRB01KT 9999 FEW060 SCT180 BKN230 17/10 Q1007
RJNK 221900Z 18003KT 9999 FEW060 BKN180 BKN/// 17/10 Q1006
RJNK 221800Z 19003KT 160V230 9999 FEW060 SCT180 BKN/// 18/09 Q1007
RJNK 221700Z VRB02KT 9999 BKN/// 18/10 Q1007
RJNK 221600Z 16003KT 130V200 9999 BKN/// 18/12 Q1008
RJNK 221500Z 13003KT 9999 BKN/// 19/12 Q1008
RJNK 221400Z 13005KT 9999 FEW060 BKN/// 19/12 Q1009
RJNK 221300Z 12003KT 9999 FEW060 BKN/// 20/12 Q1009
RJNK 221200Z 14003KT 9999 BKN/// 21/12 Q1010
RJNK 221100Z VRB02KT 9999 BKN280 22/12 Q1009
RJNK 221000Z VRB02KT 9999 BKN280 23/12 Q1009
RJNK 220900Z 28006KT 9999 BKN280 24/11 Q1008
RJNK 220800Z 29006KT 9999 FEW030 BKN280 25/11 Q1008
RJNK 220700Z 29005KT 260V320 9999 FEW030 BKN280 26/09 Q1008
RJNK 220600Z 30007KT 9999 FEW030 BKN280 26/08 Q1008
RJNK 220500Z 30009KT 9999 FEW030 BKN280 26/10 Q1009
RJNK 220400Z 29009KT 9999 FEW030 SCT250 BKN280 25/11 Q1009
RJNK 220300Z 28009KT 9999 FEW030 SCT250 BKN280 25/11 Q1010
RJNK 220200Z 28009KT 9999 FEW030 SCT250 BKN280 25/13 Q1010
RJNK 220100Z 29007KT 250V320 9999 FEW030 BKN280 25/13 Q1010
RJNK 220000Z 29004KT 230V330 9999 FEW050 BKN300 24/13 Q1010
RJNK 212300Z VRB02KT 9999 FEW050 SCT300 21/13 Q1010
RJNK 212200Z VRB02KT 9999 FEW050 SCT300 19/14 Q1009
RJNK 212100Z 15003KT 9999 FEW050 BKN300 16/14 Q1009
RJNK 212000Z 14003KT 9999 SCT300 15/14 Q1009
RJNK 211900Z 17004KT 9999 FEW/// 16/15 Q1009
RJNK 211800Z 16003KT 9999 NSC 17/16 Q1008
RJNK 211700Z 20003KT 8000 NSC 16/16 Q1008
RJNK 211600Z 17004KT 8000 NSC 17/16 Q1008
RJNK 211500Z 18004KT 7000 FEW050 18/17 Q1008
RJNK 211400Z 23002KT 7000 FEW015 19/18 Q1008
RJNK 211300Z 22003KT 9000 FEW008 20/18 Q1008
RJNK 211200Z 23005KT 7000 FEW008 20/19 Q1008
RJNK 211100Z 24008KT 6000 FEW010 SCT020 21/19 Q1007
RJNK 211000Z 26009KT 8000 FEW015 SCT280 22/19 Q1006
RJNK 210900Z 26012KT 9999 FEW030 SCT280 23/17 Q1006
RJNK 210800Z 25013KT 9999 FEW015 BKN050 BKN280 23/17 Q1005
RJNK 210700Z 25016KT 9999 FEW015 BKN280 24/17 Q1004
RJNK 210600Z 25017KT 9999 FEW015 BKN230 24/17 Q1004
RJNK 210500Z 25017KT 9999 FEW015 SCT090 BKN230 24/18 Q1004
RJNK 210400Z 26015KT 9999 FEW015 BKN200 23/18 Q1004